createdAt,value
2023-01-23T00:01:32.891Z,94.26
2023-01-23T00:04:01.109Z,95.15
2023-01-23T00:06:29.013Z,95.00
2023-01-23T00:08:57.402Z,95.23
2023-01-23T00:11:30.248Z,95.78
2023-01-23T00:13:59.366Z,96.07
2023-01-23T00:16:29.809Z,95.96
2023-01-23T00:18:57.957Z,96.04
2023-01-23T00:21:27.970Z,96.06
2023-01-23T00:23:58.130Z,95.80
2023-01-23T00:26:29.148Z,95.87
2023-01-23T00:28:57.444Z,95.88
2023-01-23T00:31:27.198Z,95.30
2023-01-23T00:33:58.400Z,95.11
2023-01-23T00:36:32.442Z,95.01
2023-01-23T00:39:00.316Z,94.87
2023-01-23T00:41:31.235Z,94.80
2023-01-23T00:43:58.938Z,94.77
2023-01-23T00:46:26.679Z,94.67
2023-01-23T00:48:54.647Z,94.37
2023-01-23T00:51:22.447Z,94.26
2023-01-23T00:53:50.131Z,94.22
2023-01-23T00:56:18.676Z,94.26
2023-01-23T00:58:46.243Z,94.28
2023-01-23T01:01:15.955Z,94.23
2023-01-23T01:03:45.041Z,94.33
2023-01-23T01:06:12.589Z,94.20
2023-01-23T01:08:40.550Z,94.31
2023-01-23T01:11:08.718Z,94.24
2023-01-23T01:13:36.778Z,94.34
2023-01-23T01:16:04.647Z,94.28
2023-01-23T01:18:32.536Z,94.25
2023-01-23T01:21:00.205Z,94.27
2023-01-23T01:23:27.819Z,94.32
2023-01-23T01:25:59.649Z,94.30
2023-01-23T01:28:30.375Z,94.33
2023-01-23T01:30:58.566Z,94.32
2023-01-23T01:33:28.478Z,94.34
2023-01-23T01:35:56.948Z,94.34
2023-01-23T01:38:25.084Z,94.29
2023-01-23T01:40:52.795Z,94.31
2023-01-23T01:43:25.583Z,94.41
2023-01-23T01:46:14.534Z,94.49
2023-01-23T01:49:16.604Z,94.74
2023-01-23T01:51:46.059Z,95.03
2023-01-23T01:55:09.858Z,95.19
2023-01-23T01:57:41.624Z,95.17
2023-01-23T02:00:12.664Z,95.21
2023-01-23T02:02:53.247Z,95.25
2023-01-23T02:05:41.667Z,95.37
2023-01-23T02:08:16.077Z,95.48
2023-01-23T02:10:44.647Z,95.58
2023-01-23T02:13:36.166Z,95.54
2023-01-23T02:16:16.412Z,95.56
2023-01-23T02:18:48.279Z,95.60
2023-01-23T02:21:20.083Z,95.79
2023-01-23T02:24:08.232Z,95.89
2023-01-23T02:26:40.431Z,95.88
2023-01-23T02:29:08.949Z,95.99
2023-01-23T02:31:39.322Z,96.02
2023-01-23T02:34:06.891Z,96.01
2023-01-23T02:36:35.665Z,95.97
2023-01-23T02:39:08.946Z,95.87
2023-01-23T02:41:41.507Z,95.85
2023-01-23T02:44:15.636Z,95.79
2023-01-23T02:46:44.439Z,95.85
2023-01-23T02:49:11.980Z,95.86
2023-01-23T02:51:39.499Z,95.81
2023-01-23T02:54:08.628Z,95.71
2023-01-23T02:56:36.158Z,95.58
2023-01-23T02:59:22.380Z,95.57
2023-01-23T03:01:51.577Z,95.51
2023-01-23T03:04:19.853Z,95.57
2023-01-23T03:06:47.741Z,95.54
2023-01-23T03:09:17.356Z,95.57
2023-01-23T03:11:47.352Z,95.54
2023-01-23T03:14:18.143Z,95.42
2023-01-23T03:16:54.446Z,95.41
2023-01-23T03:19:25.509Z,95.39
2023-01-23T03:21:54.265Z,95.46
2023-01-23T03:24:22.648Z,95.46
2023-01-23T03:26:52.378Z,95.62
2023-01-23T03:29:44.607Z,95.67
2023-01-23T03:32:15.187Z,95.75
2023-01-23T03:34:43.389Z,95.78
2023-01-23T03:37:12.831Z,95.81
2023-01-23T03:39:59.348Z,95.83
2023-01-23T03:42:26.996Z,95.84
2023-01-23T03:44:56.314Z,95.85
2023-01-23T03:47:26.422Z,95.92
2023-01-23T03:49:54.951Z,95.99
2023-01-23T03:52:23.062Z,95.90
2023-01-23T03:54:50.701Z,95.87
2023-01-23T03:57:18.403Z,95.88
2023-01-23T03:59:47.887Z,95.79
2023-01-23T04:02:16.579Z,95.71
2023-01-23T04:04:44.738Z,95.64
2023-01-23T04:07:12.396Z,95.52
2023-01-23T04:09:40.340Z,95.48
2023-01-23T04:12:08.258Z,95.51
2023-01-23T04:14:37.790Z,95.53
2023-01-23T04:17:07.734Z,95.66
2023-01-23T04:19:35.901Z,95.80
2023-01-23T04:22:05.039Z,95.85
2023-01-23T04:24:32.821Z,95.75
2023-01-23T04:27:00.724Z,95.72
2023-01-23T04:29:28.611Z,95.82
2023-01-23T04:31:56.297Z,95.94
2023-01-23T04:34:24.104Z,95.92
2023-01-23T04:36:52.087Z,95.96
2023-01-23T04:39:19.607Z,95.89
2023-01-23T04:41:47.684Z,95.83
2023-01-23T04:44:21.717Z,95.82
2023-01-23T04:46:55.825Z,95.84
2023-01-23T04:49:25.543Z,95.97
2023-01-23T04:51:54.023Z,95.94
2023-01-23T04:54:22.620Z,95.95
2023-01-23T04:56:50.197Z,95.99
2023-01-23T04:59:18.442Z,96.02
2023-01-23T05:01:46.260Z,95.95
2023-01-23T05:04:13.864Z,95.93
2023-01-23T05:06:41.751Z,96.06
2023-01-23T05:09:09.286Z,95.90
2023-01-23T05:11:37.170Z,95.81
2023-01-23T05:14:05.103Z,95.84
2023-01-23T05:16:32.948Z,95.82
2023-01-23T05:19:02.691Z,95.67
2023-01-23T05:21:30.772Z,95.68
2023-01-23T05:23:58.175Z,95.64
2023-01-23T05:26:25.783Z,95.56
2023-01-23T05:28:54.535Z,95.53
2023-01-23T05:31:22.181Z,95.54
2023-01-23T05:33:50.427Z,95.50
2023-01-23T05:36:18.828Z,95.50
2023-01-23T05:38:46.707Z,95.45
2023-01-23T05:41:14.423Z,95.41
2023-01-23T05:43:44.391Z,95.40
2023-01-23T05:46:17.133Z,95.37
2023-01-23T05:48:49.953Z,95.36
2023-01-23T05:51:18.734Z,95.43
2023-01-23T05:53:46.708Z,95.33
2023-01-23T05:56:14.495Z,95.34
2023-01-23T05:58:42.568Z,95.47
2023-01-23T06:01:11.184Z,95.40
2023-01-23T06:03:40.874Z,95.58
2023-01-23T06:06:09.126Z,95.61
2023-01-23T06:08:36.631Z,97.79
2023-01-23T06:11:04.667Z,98.01
2023-01-23T06:13:32.512Z,96.23
2023-01-23T06:16:00.223Z,94.03
2023-01-23T06:18:29.093Z,86.77
2023-01-23T06:21:01.215Z,87.10
2023-01-23T06:23:29.526Z,88.53
2023-01-23T06:26:01.010Z,88.15
2023-01-23T06:28:29.548Z,86.43
2023-01-23T06:31:02.140Z,86.87
2023-01-23T06:33:31.374Z,89.55
2023-01-23T06:36:00.144Z,88.64
2023-01-23T06:38:28.524Z,89.02
2023-01-23T06:40:56.734Z,89.70
2023-01-23T06:43:26.017Z,92.29
2023-01-23T06:45:53.815Z,91.67
2023-01-23T06:48:21.990Z,90.61
2023-01-23T06:50:52.934Z,91.08
2023-01-23T06:53:20.903Z,91.62
2023-01-23T06:55:49.415Z,91.81
2023-01-23T06:58:17.859Z,92.02
2023-01-23T07:00:46.057Z,92.18
2023-01-23T07:03:15.581Z,92.49
2023-01-23T07:05:43.627Z,92.63
2023-01-23T07:08:13.267Z,92.81
2023-01-23T07:10:41.071Z,92.96
2023-01-23T07:13:10.931Z,92.85
2023-01-23T07:15:40.931Z,92.95
2023-01-23T07:18:09.594Z,93.02
2023-01-23T07:20:38.483Z,93.06
2023-01-23T07:23:06.341Z,93.06
2023-01-23T07:25:33.970Z,93.43
2023-01-23T07:28:01.608Z,93.48
2023-01-23T07:30:29.567Z,93.53
2023-01-23T07:32:58.518Z,93.59
2023-01-23T07:35:26.880Z,93.56
2023-01-23T07:37:54.674Z,93.73
2023-01-23T07:40:22.572Z,93.78
2023-01-23T07:42:50.297Z,93.83
2023-01-23T07:45:19.357Z,93.96
2023-01-23T07:47:46.888Z,94.04
2023-01-23T07:50:14.547Z,94.15
2023-01-23T07:52:42.385Z,94.34
2023-01-23T07:55:10.142Z,94.47
2023-01-23T07:57:37.659Z,94.40
2023-01-23T08:00:06.103Z,94.35
2023-01-23T08:02:40.266Z,94.32
2023-01-23T08:05:08.458Z,94.29
2023-01-23T08:07:36.062Z,94.36
2023-01-23T08:10:03.715Z,94.31
2023-01-23T08:12:31.508Z,94.27
2023-01-23T08:14:59.061Z,94.24
2023-01-23T08:17:26.679Z,94.22
2023-01-23T08:19:54.483Z,94.22
2023-01-23T08:22:22.081Z,94.26
2023-01-23T08:24:49.724Z,94.28
2023-01-23T08:27:17.585Z,94.37
2023-01-23T08:29:45.073Z,94.19
2023-01-23T08:32:12.666Z,94.17
2023-01-23T08:34:40.610Z,94.18
2023-01-23T08:37:08.147Z,94.12
2023-01-23T08:39:35.690Z,94.15
2023-01-23T08:42:03.693Z,94.12
2023-01-23T08:44:34.290Z,94.18
2023-01-23T08:47:03.266Z,94.19
2023-01-23T08:49:31.182Z,94.13
2023-01-23T08:52:00.175Z,94.09
2023-01-23T08:54:27.752Z,94.09
2023-01-23T08:56:55.549Z,94.12
2023-01-23T08:59:23.143Z,94.09
2023-01-23T09:01:50.778Z,94.14
2023-01-23T09:04:18.785Z,94.07
2023-01-23T09:06:46.303Z,93.99
2023-01-23T09:09:13.773Z,93.82
2023-01-23T09:11:41.736Z,93.71
2023-01-23T09:14:09.284Z,93.60
2023-01-23T09:16:36.905Z,93.59
2023-01-23T09:19:04.708Z,93.57
2023-01-23T09:21:32.272Z,93.64
2023-01-23T09:23:59.731Z,93.61
2023-01-23T09:26:27.534Z,93.57
2023-01-23T09:28:55.366Z,93.67
2023-01-23T09:31:22.984Z,93.65
2023-01-23T09:33:50.816Z,93.59
2023-01-23T09:36:30.431Z,93.60
2023-01-23T09:39:09.068Z,93.56
2023-01-23T09:41:39.274Z,93.46
2023-01-23T09:44:23.206Z,93.57
2023-01-23T09:47:02.772Z,93.44
2023-01-23T09:49:36.189Z,93.58
2023-01-23T09:52:12.116Z,93.61
2023-01-23T09:54:53.255Z,93.33
2023-01-23T09:57:28.459Z,93.40
2023-01-23T10:00:16.112Z,93.21
2023-01-23T10:02:44.973Z,93.24
2023-01-23T10:05:21.155Z,93.06
2023-01-23T10:07:57.806Z,92.92
2023-01-23T10:10:39.366Z,92.97
2023-01-23T10:13:25.839Z,92.42
2023-01-23T10:16:08.511Z,92.26
2023-01-23T10:18:54.429Z,92.26
2023-01-23T10:21:37.897Z,92.11
2023-01-23T10:24:26.197Z,91.72
2023-01-23T10:26:58.591Z,91.18
2023-01-23T10:29:35.441Z,91.09
2023-01-23T10:32:06.680Z,91.12
2023-01-23T10:34:48.011Z,91.21
2023-01-23T10:37:25.633Z,91.23
2023-01-23T10:40:13.142Z,91.16
2023-01-23T10:42:40.998Z,91.04
2023-01-23T10:45:19.662Z,91.10
2023-01-23T10:47:54.654Z,91.03
2023-01-23T10:50:40.243Z,91.07
2023-01-23T10:53:18.149Z,91.17
2023-01-23T10:55:47.569Z,91.35
2023-01-23T10:58:50.199Z,91.38
2023-01-23T11:01:27.320Z,91.59
2023-01-23T11:03:54.941Z,91.62
2023-01-23T11:06:26.109Z,91.56
2023-01-23T11:09:00.521Z,91.35
2023-01-23T11:11:30.820Z,91.30
2023-01-23T11:14:22.723Z,91.40
2023-01-23T11:17:21.754Z,91.40
2023-01-23T11:19:53.641Z,91.44
2023-01-23T11:22:29.506Z,91.58
2023-01-23T11:24:58.096Z,91.39
2023-01-23T11:27:31.150Z,91.59
2023-01-23T11:30:30.271Z,91.87
2023-01-23T11:33:04.344Z,92.05
2023-01-23T11:35:50.188Z,92.39
2023-01-23T11:38:30.581Z,92.61
2023-01-23T11:40:58.977Z,92.74
2023-01-23T11:43:26.902Z,92.97
2023-01-23T11:46:00.377Z,93.08
2023-01-23T11:49:08.427Z,93.27
2023-01-23T11:51:51.212Z,93.47
2023-01-23T11:54:34.295Z,93.67
2023-01-23T11:57:37.016Z,93.68
2023-01-23T12:00:20.352Z,93.63
2023-01-23T12:03:25.528Z,93.95
2023-01-23T12:09:14.657Z,94.10
2023-01-23T12:11:57.877Z,94.32
2023-01-23T12:14:53.388Z,94.36
2023-01-23T12:17:33.867Z,94.04
2023-01-23T12:20:20.435Z,94.26
2023-01-23T12:23:06.427Z,94.19
2023-01-23T12:25:37.123Z,94.23
2023-01-23T12:28:26.465Z,94.26
2023-01-23T12:31:23.805Z,94.50
2023-01-23T12:34:12.410Z,94.43
2023-01-23T12:37:08.634Z,94.55
2023-01-23T12:39:57.913Z,94.43
2023-01-23T12:42:34.771Z,94.48
2023-01-23T12:45:11.167Z,94.75
2023-01-23T12:47:50.277Z,94.59
2023-01-23T12:50:29.840Z,94.76
2023-01-23T12:53:07.889Z,94.80
2023-01-23T12:56:10.612Z,94.87
2023-01-23T12:58:42.900Z,94.87
2023-01-23T13:01:41.413Z,95.20
2023-01-23T13:04:27.335Z,95.23
2023-01-23T13:07:09.773Z,95.21
2023-01-23T13:09:50.154Z,95.09
2023-01-23T13:12:23.295Z,95.14
2023-01-23T13:15:19.086Z,95.31
2023-01-23T13:18:01.675Z,95.33
2023-01-23T13:20:53.198Z,95.44
2023-01-23T13:23:32.759Z,95.54
2023-01-23T13:26:15.789Z,95.70
2023-01-23T13:28:54.309Z,95.77
2023-01-23T13:31:47.146Z,96.00
2023-01-23T13:34:18.046Z,96.00
2023-01-23T13:36:50.294Z,96.06
2023-01-23T13:39:21.320Z,96.18
2023-01-23T13:42:16.134Z,96.24
2023-01-23T13:45:21.118Z,96.20
2023-01-23T14:28:17.900Z,97.11
2023-01-23T14:31:06.906Z,97.11
2023-01-23T14:33:45.431Z,97.26
2023-01-23T14:36:16.799Z,97.32
2023-01-23T14:38:49.930Z,97.26
2023-01-23T14:41:20.737Z,97.34
2023-01-23T14:43:48.714Z,97.39
2023-01-23T14:46:22.333Z,97.30
2023-01-23T14:48:54.515Z,97.41
2023-01-23T14:51:27.451Z,97.40
2023-01-23T14:53:59.805Z,97.31
2023-01-23T14:56:37.964Z,97.28
2023-01-23T14:59:08.117Z,97.15
2023-01-23T15:01:36.080Z,97.19
2023-01-23T15:04:23.565Z,97.24
2023-01-23T15:06:58.495Z,97.15
2023-01-23T15:09:38.760Z,96.94
2023-01-23T15:12:12.101Z,97.09
2023-01-23T15:14:40.343Z,97.18
2023-01-23T15:17:17.527Z,97.20
2023-01-23T15:19:51.061Z,97.28
2023-01-23T15:22:22.025Z,97.29
2023-01-23T15:24:49.683Z,97.34
2023-01-23T15:27:36.104Z,97.36
2023-01-23T15:30:37.972Z,97.49
2023-01-23T15:33:22.621Z,97.63
2023-01-23T15:35:50.876Z,97.46
2023-01-23T15:38:18.693Z,97.10
2023-01-23T15:40:46.520Z,97.27
2023-01-23T15:43:19.511Z,97.00
2023-01-23T15:45:47.228Z,97.57
2023-01-23T15:48:15.090Z,97.71
2023-01-23T15:50:42.856Z,97.57
2023-01-23T15:53:15.002Z,97.74
2023-01-23T15:55:42.929Z,97.69
2023-01-23T15:58:14.916Z,97.90
2023-01-23T16:00:42.827Z,98.01
2023-01-23T16:03:14.540Z,98.14
2023-01-23T16:05:42.346Z,98.03
2023-01-23T16:08:20.450Z,98.29
2023-01-23T16:10:50.153Z,98.42
2023-01-23T16:13:17.707Z,98.47
2023-01-23T16:15:45.276Z,98.51
2023-01-23T16:18:13.081Z,98.52
2023-01-23T16:20:45.416Z,98.63
2023-01-23T16:23:24.876Z,98.68
2023-01-23T16:25:53.366Z,98.70
2023-01-23T16:28:24.058Z,98.54
2023-01-23T16:30:52.256Z,98.41
2023-01-23T16:33:20.924Z,98.46
2023-01-23T16:35:50.676Z,98.34
2023-01-23T16:38:29.033Z,98.35
2023-01-23T16:40:59.731Z,98.43
2023-01-23T16:43:27.421Z,98.36
2023-01-23T16:45:56.771Z,98.32
2023-01-23T16:48:27.537Z,98.17
2023-01-23T16:51:14.441Z,98.02
2023-01-23T16:53:49.323Z,97.95
2023-01-23T16:56:35.193Z,97.78
2023-01-23T16:59:14.258Z,97.95
2023-01-23T17:01:44.510Z,98.04
2023-01-23T17:04:16.610Z,98.05
2023-01-23T17:06:44.296Z,98.13
2023-01-23T17:09:13.637Z,98.20
2023-01-23T17:11:56.701Z,98.08
2023-01-23T17:14:28.913Z,98.06
2023-01-23T17:17:07.273Z,98.08
2023-01-23T17:19:41.677Z,98.06
2023-01-23T17:22:18.865Z,98.11
2023-01-23T17:24:46.710Z,98.10
2023-01-23T17:27:14.296Z,98.20
2023-01-23T17:29:41.828Z,98.25
2023-01-23T17:32:40.604Z,97.98
2023-01-23T17:35:16.714Z,97.97
2023-01-23T17:37:44.546Z,97.54
2023-01-23T17:40:14.604Z,97.77
2023-01-23T17:42:42.831Z,97.79
2023-01-23T17:45:15.353Z,97.80
2023-01-23T17:47:45.360Z,97.71
2023-01-23T17:50:24.794Z,97.32
2023-01-23T17:52:54.075Z,97.81
2023-01-23T17:55:25.573Z,97.84
2023-01-23T17:57:53.169Z,97.85
2023-01-23T18:00:22.001Z,97.77
2023-01-23T18:02:58.516Z,97.87
2023-01-23T18:05:26.852Z,98.14
2023-01-23T18:07:54.711Z,98.00
2023-01-23T18:10:24.596Z,98.01
2023-01-23T18:13:07.319Z,97.96
2023-01-23T18:16:11.305Z,97.87
2023-01-23T18:18:40.529Z,98.04
2023-01-23T18:21:15.222Z,98.17
2023-01-23T18:23:43.072Z,98.14
2023-01-23T18:26:44.614Z,97.90
2023-01-23T18:29:33.488Z,97.73
2023-01-23T18:32:14.582Z,97.72
2023-01-23T18:35:00.308Z,97.73
2023-01-23T18:38:05.178Z,97.87
2023-01-23T18:41:10.207Z,98.05
2023-01-23T18:44:07.732Z,98.04
2023-01-23T18:46:35.539Z,98.05
2023-01-23T18:49:04.694Z,98.09
2023-01-23T18:51:40.502Z,98.06
2023-01-23T18:54:27.026Z,98.21
2023-01-23T18:56:57.555Z,98.18
2023-01-23T18:59:45.531Z,98.05
2023-01-23T19:02:38.291Z,97.99
2023-01-23T19:05:13.933Z,97.99
2023-01-23T19:07:42.717Z,98.01
2023-01-23T19:10:21.740Z,98.07
2023-01-23T19:12:52.294Z,98.09
2023-01-23T19:15:57.811Z,98.10
2023-01-23T19:18:40.082Z,98.00
2023-01-23T19:21:25.083Z,98.09
2023-01-23T19:23:57.326Z,98.09
2023-01-23T19:26:33.250Z,98.12
2023-01-23T19:29:19.322Z,97.99
2023-01-23T19:32:06.509Z,97.90
2023-01-23T19:34:35.004Z,97.78
2023-01-23T19:37:03.700Z,97.73
2023-01-23T19:39:31.329Z,97.72
2023-01-23T19:41:59.581Z,97.72
2023-01-23T19:44:30.005Z,97.74
2023-01-23T19:46:57.660Z,97.88
2023-01-23T19:49:25.382Z,97.83
2023-01-23T19:51:53.388Z,97.85
2023-01-23T19:54:23.774Z,97.94
2023-01-23T19:56:52.376Z,97.89
2023-01-23T19:59:20.902Z,97.92
2023-01-23T20:01:52.363Z,97.90
2023-01-23T20:04:23.388Z,97.85
2023-01-23T20:06:53.767Z,97.84
2023-01-23T20:09:22.099Z,97.89
2023-01-23T20:11:50.248Z,97.98
2023-01-23T20:14:17.787Z,97.95
2023-01-23T20:16:45.684Z,98.04
2023-01-23T20:19:15.292Z,98.07
2023-01-23T20:21:43.133Z,98.02
2023-01-23T20:24:11.796Z,97.91
2023-01-23T20:26:39.973Z,97.93
2023-01-23T20:29:08.786Z,97.83
2023-01-23T20:31:36.845Z,97.78
2023-01-23T20:34:04.476Z,97.52
2023-01-23T20:36:31.992Z,97.33
2023-01-23T20:38:59.820Z,97.22
2023-01-23T20:41:27.325Z,97.07
2023-01-23T20:43:54.918Z,96.91
2023-01-23T20:46:22.840Z,96.83
2023-01-23T20:48:50.400Z,96.80
2023-01-23T20:51:18.123Z,96.75
2023-01-23T20:53:46.212Z,96.82
2023-01-23T20:56:16.358Z,96.94
2023-01-23T20:59:06.331Z,97.05
2023-01-23T21:01:56.025Z,96.98
2023-01-23T21:04:26.077Z,96.97
2023-01-23T21:06:54.333Z,97.10
2023-01-23T21:09:23.173Z,97.23
2023-01-23T21:11:51.812Z,97.26
2023-01-23T21:14:20.715Z,97.19
2023-01-23T21:16:48.690Z,97.15
2023-01-23T21:19:16.629Z,96.99
2023-01-23T21:21:44.814Z,96.99
2023-01-23T21:24:13.041Z,97.10
2023-01-23T21:26:40.752Z,97.19
2023-01-23T21:29:08.984Z,97.19
2023-01-23T21:31:41.585Z,97.24
2023-01-23T21:34:12.689Z,97.17
2023-01-23T21:36:41.808Z,97.19
2023-01-23T21:39:13.305Z,97.10
2023-01-23T21:41:41.087Z,97.00
2023-01-23T21:44:10.726Z,97.11
2023-01-23T21:46:38.503Z,97.05
2023-01-23T21:49:06.112Z,97.13
2023-01-23T21:51:34.110Z,97.02
2023-01-23T21:54:01.925Z,97.23
2023-01-23T21:56:29.514Z,97.21
2023-01-23T21:58:57.496Z,97.04
2023-01-23T22:01:32.830Z,97.00
2023-01-23T22:04:03.340Z,97.04
2023-01-23T22:06:31.912Z,97.00
2023-01-23T22:08:59.788Z,97.04
2023-01-23T22:11:27.924Z,96.93
2023-01-23T22:13:55.679Z,96.92
2023-01-23T22:16:36.004Z,96.88
2023-01-23T22:19:16.475Z,96.93
2023-01-23T22:21:46.452Z,96.85
2023-01-23T22:24:15.831Z,96.85
2023-01-23T22:26:43.550Z,96.85
2023-01-23T22:29:15.348Z,96.86
2023-01-23T22:31:43.547Z,96.95
2023-01-23T22:34:11.127Z,97.02
2023-01-23T22:36:38.688Z,97.13
2023-01-23T22:39:06.575Z,96.95
2023-01-23T22:41:34.160Z,96.78
2023-01-23T22:44:01.628Z,96.59
2023-01-23T22:46:29.615Z,96.43
2023-01-23T22:48:57.127Z,96.45
2023-01-23T22:51:27.058Z,96.28
2023-01-23T22:53:56.418Z,96.17
2023-01-23T22:56:25.289Z,96.22
2023-01-23T22:58:54.520Z,96.19
2023-01-23T23:01:24.121Z,96.22
2023-01-23T23:03:51.750Z,96.16
2023-01-23T23:06:20.110Z,96.22
2023-01-23T23:08:48.457Z,96.18
2023-01-23T23:11:22.572Z,96.12
2023-01-23T23:13:50.921Z,96.19
2023-01-23T23:16:24.735Z,96.29
2023-01-23T23:18:54.623Z,96.48
2023-01-23T23:21:25.241Z,96.46
2023-01-23T23:23:57.277Z,96.50
2023-01-23T23:26:26.733Z,96.50
2023-01-23T23:28:55.742Z,96.51
2023-01-23T23:31:23.404Z,96.65
2023-01-23T23:33:51.027Z,96.65
2023-01-23T23:36:20.213Z,96.72
2023-01-23T23:38:47.819Z,96.85
2023-01-23T23:41:16.936Z,96.87
2023-01-23T23:43:45.023Z,96.79
2023-01-23T23:46:13.891Z,96.78
2023-01-23T23:48:43.709Z,96.81
2023-01-23T23:51:13.940Z,96.74
2023-01-23T23:53:41.519Z,96.71
2023-01-23T23:56:10.658Z,96.78
2023-01-23T23:58:38.833Z,96.91
